createdAt,value
2022-08-04T00:00:17.354Z,50.00
2022-08-04T00:06:17.004Z,45.83
2022-08-04T00:11:23.618Z,47.22
2022-08-04T00:16:32.929Z,50.55
2022-08-04T00:21:45.009Z,52.00
2022-08-04T00:26:56.218Z,54.92
2022-08-04T00:32:00.053Z,47.83
2022-08-04T00:37:01.906Z,51.38
2022-08-04T00:42:13.298Z,48.95
2022-08-04T00:47:32.269Z,44.97
2022-08-04T00:52:46.692Z,47.15
2022-08-04T00:58:08.118Z,41.03
2022-08-04T01:03:18.257Z,49.72
2022-08-04T01:09:10.959Z,37.58
2022-08-04T01:14:44.695Z,47.85
2022-08-04T01:20:02.249Z,38.10
2022-08-04T01:25:32.586Z,44.40
2022-08-04T01:30:38.072Z,43.60
2022-08-04T01:35:55.609Z,41.50
2022-08-04T01:41:03.094Z,44.05
2022-08-04T01:46:13.491Z,53.45
2022-08-04T01:51:15.204Z,45.50
2022-08-04T01:56:18.559Z,45.83
2022-08-04T02:01:20.567Z,42.80
2022-08-04T02:06:27.580Z,41.25
2022-08-04T02:11:36.921Z,56.88
2022-08-04T02:16:52.718Z,46.85
2022-08-04T02:22:06.514Z,43.60
2022-08-04T02:27:11.220Z,47.60
2022-08-04T02:32:31.781Z,40.05
2022-08-04T02:37:34.303Z,44.40
2022-08-04T02:42:40.865Z,46.20
2022-08-04T02:48:08.166Z,53.70
2022-08-04T02:53:15.433Z,47.40
2022-08-04T02:58:20.315Z,40.25
2022-08-04T03:03:35.154Z,45.08
2022-08-04T03:09:15.141Z,44.40
2022-08-04T03:14:47.695Z,35.63
2022-08-04T03:20:32.603Z,41.25
2022-08-04T03:26:12.003Z,41.03
2022-08-04T03:31:35.808Z,44.28
2022-08-04T03:37:03.959Z,40.40
2022-08-04T03:42:29.960Z,39.50
2022-08-04T03:47:51.967Z,42.90
2022-08-04T03:53:24.589Z,36.95
2022-08-04T03:58:43.771Z,36.72
2022-08-04T04:04:03.136Z,33.45
2022-08-04T04:09:23.292Z,32.28
2022-08-04T04:14:52.898Z,36.95
2022-08-04T04:20:19.704Z,31.27
2022-08-04T04:25:26.284Z,31.40
2022-08-04T04:31:02.981Z,29.85
2022-08-04T04:36:07.866Z,31.45
2022-08-04T04:41:35.449Z,37.15
2022-08-04T04:47:10.086Z,30.75
2022-08-04T04:52:42.470Z,26.67
2022-08-04T04:57:53.548Z,27.00
2022-08-04T05:03:00.519Z,25.50
2022-08-04T05:08:43.792Z,29.80
2022-08-04T05:14:35.306Z,32.38
2022-08-04T05:19:24.508Z,26.77
2022-08-04T05:24:29.162Z,25.35
2022-08-04T05:29:46.623Z,23.08
2022-08-04T05:34:57.609Z,24.98
2022-08-04T05:40:05.013Z,18.33
2022-08-04T05:45:09.837Z,21.83
2022-08-04T05:50:16.457Z,27.15
2022-08-04T05:55:57.196Z,21.20
2022-08-04T06:00:43.298Z,25.17
2022-08-04T06:05:57.831Z,21.02
2022-08-04T06:11:04.175Z,28.48
2022-08-04T06:16:06.939Z,17.08
2022-08-04T06:21:16.454Z,21.75
2022-08-04T06:26:21.680Z,25.48
2022-08-04T06:32:28.386Z,24.95
2022-08-04T06:37:43.054Z,24.83
2022-08-04T06:42:49.837Z,24.48
2022-08-04T06:47:51.933Z,25.80
2022-08-04T06:52:59.394Z,27.00
2022-08-04T06:58:03.544Z,18.65
2022-08-04T07:03:07.176Z,21.35
2022-08-04T07:08:10.705Z,22.63
2022-08-04T07:13:17.298Z,20.88
2022-08-04T07:18:21.192Z,19.48
2022-08-04T07:23:24.636Z,16.08
2022-08-04T07:28:31.026Z,25.00
2022-08-04T07:33:37.373Z,16.27
2022-08-04T07:38:49.732Z,14.98
2022-08-04T07:43:54.926Z,13.98
2022-08-04T07:48:58.421Z,21.15
2022-08-04T07:54:00.698Z,9.85
2022-08-04T07:59:05.147Z,14.90
2022-08-04T08:04:11.679Z,15.20
2022-08-04T08:09:18.792Z,14.93
2022-08-04T08:14:23.627Z,16.67
2022-08-04T08:19:25.742Z,15.68
2022-08-04T08:24:33.804Z,10.45
2022-08-04T08:29:36.220Z,14.13
2022-08-04T08:34:41.924Z,14.40
2022-08-04T08:40:04.586Z,8.85
2022-08-04T08:45:36.357Z,9.23
2022-08-04T08:50:50.806Z,14.07
2022-08-04T08:56:30.941Z,17.75
2022-08-04T09:02:16.715Z,12.15
2022-08-04T09:07:58.492Z,12.30
2022-08-04T09:13:06.562Z,8.25
2022-08-04T09:18:50.897Z,9.60
2022-08-04T09:24:35.138Z,8.13
2022-08-04T09:29:47.857Z,12.07
2022-08-04T09:35:14.957Z,12.27
2022-08-04T09:40:31.743Z,9.13
2022-08-04T09:45:55.345Z,10.07
2022-08-04T09:51:00.103Z,8.27
2022-08-04T09:56:17.482Z,16.10
2022-08-04T10:01:26.604Z,8.27
2022-08-04T10:06:32.867Z,12.07
2022-08-04T10:11:56.270Z,13.50
2022-08-04T10:17:52.038Z,10.32
2022-08-04T10:23:18.261Z,12.93
2022-08-04T10:28:23.974Z,8.45
2022-08-04T10:33:28.577Z,10.02
2022-08-04T10:38:44.899Z,7.75
2022-08-04T10:44:06.648Z,12.20
2022-08-04T10:49:26.221Z,11.80
2022-08-04T10:54:48.285Z,8.63
2022-08-04T11:00:03.384Z,14.40
2022-08-04T11:05:12.284Z,8.77
2022-08-04T11:10:22.985Z,9.68
2022-08-04T11:15:45.157Z,9.00
2022-08-04T11:21:04.332Z,8.75
2022-08-04T11:26:32.259Z,9.88
2022-08-04T11:31:40.640Z,10.05
2022-08-04T11:37:30.111Z,9.68
2022-08-04T11:42:43.307Z,12.45
2022-08-04T11:48:05.251Z,14.15
2022-08-04T11:53:08.009Z,12.70
2022-08-04T11:58:10.350Z,9.25
2022-08-04T12:03:29.364Z,16.13
2022-08-04T12:08:51.846Z,11.88
2022-08-04T12:14:20.937Z,10.98
2022-08-04T12:20:04.213Z,6.82
2022-08-04T12:25:14.481Z,12.23
2022-08-04T12:30:58.084Z,7.95
2022-08-04T12:36:10.658Z,7.90
2022-08-04T12:41:19.451Z,12.80
2022-08-04T12:46:26.115Z,14.27
2022-08-04T12:52:05.666Z,16.42
2022-08-04T12:56:57.544Z,12.15
2022-08-04T13:02:08.509Z,8.80
2022-08-04T13:07:16.877Z,16.35
2022-08-04T13:12:31.985Z,7.97
2022-08-04T13:17:54.080Z,5.47
2022-08-04T13:23:05.918Z,11.05
2022-08-04T13:28:19.842Z,8.80
2022-08-04T13:33:23.724Z,7.00
2022-08-04T13:38:28.745Z,6.20
2022-08-04T13:44:16.623Z,5.35
2022-08-04T13:49:38.017Z,14.30
2022-08-04T13:54:46.648Z,3.67
2022-08-04T13:59:59.183Z,5.60
2022-08-04T14:05:27.986Z,5.38
2022-08-04T14:10:34.325Z,4.60
2022-08-04T14:16:02.233Z,4.55
2022-08-04T14:21:11.489Z,5.38
2022-08-04T14:26:15.299Z,7.45
2022-08-04T14:31:23.731Z,6.05
2022-08-04T14:36:27.537Z,31.75
2022-08-04T14:41:44.979Z,16.00
2022-08-04T14:46:54.977Z,28.10
2022-08-04T14:52:03.402Z,17.83
2022-08-04T14:57:11.882Z,10.63
2022-08-04T15:02:15.385Z,6.30
2022-08-04T15:07:20.746Z,6.22
2022-08-04T15:12:23.331Z,8.52
2022-08-04T15:17:30.524Z,5.35
2022-08-04T15:22:35.255Z,3.97
2022-08-04T15:27:40.281Z,5.53
2022-08-04T15:32:47.602Z,4.05
2022-08-04T15:37:58.541Z,6.50
2022-08-04T15:43:20.303Z,6.90
2022-08-04T15:48:26.573Z,7.88
2022-08-04T15:54:03.428Z,10.85
2022-08-04T15:59:05.986Z,10.05
2022-08-04T16:04:22.841Z,9.88
2022-08-04T16:09:45.374Z,8.98
2022-08-04T16:14:48.225Z,8.50
2022-08-04T16:20:02.097Z,8.52
2022-08-04T16:25:07.482Z,18.80
2022-08-04T16:30:15.115Z,17.55
2022-08-04T16:35:26.364Z,16.30
2022-08-04T16:40:33.815Z,23.83
2022-08-04T16:45:41.286Z,26.08
2022-08-04T16:50:55.593Z,36.60
2022-08-04T16:55:58.139Z,29.92
2022-08-04T17:01:32.633Z,20.67
2022-08-04T17:06:41.494Z,19.75
2022-08-04T17:11:50.200Z,19.95
2022-08-04T17:16:53.365Z,21.67
2022-08-04T17:22:04.261Z,19.77
2022-08-04T17:28:06.109Z,15.82
2022-08-04T17:32:34.764Z,13.88
2022-08-04T17:37:53.075Z,13.93
2022-08-04T17:44:02.979Z,17.88
2022-08-04T17:48:29.104Z,16.98
2022-08-04T17:54:01.797Z,18.23
2022-08-04T17:59:55.695Z,15.90
2022-08-04T18:05:06.273Z,14.88
2022-08-04T18:10:30.611Z,16.25
2022-08-04T18:15:44.140Z,15.00
2022-08-04T18:20:50.179Z,17.65
2022-08-04T18:25:52.468Z,16.30
2022-08-04T18:30:55.552Z,15.80
2022-08-04T18:36:33.610Z,16.63
2022-08-04T18:41:25.291Z,15.52
2022-08-04T18:46:30.822Z,16.77
2022-08-04T18:51:32.934Z,13.35
2022-08-04T18:56:35.014Z,15.10
2022-08-04T19:02:17.520Z,13.95
2022-08-04T19:07:29.207Z,13.55
2022-08-04T19:12:32.526Z,13.88
2022-08-04T19:17:53.829Z,12.95
2022-08-04T19:24:29.163Z,9.07
2022-08-04T19:28:20.857Z,10.25
2022-08-04T19:33:25.581Z,7.18
2022-08-04T19:38:34.964Z,4.75
2022-08-04T19:43:38.749Z,9.68
2022-08-04T19:54:23.527Z,7.07
2022-08-04T19:59:28.197Z,6.35
2022-08-04T20:04:34.213Z,9.30
2022-08-04T20:09:38.537Z,5.63
2022-08-04T20:14:42.560Z,7.30
2022-08-04T20:19:51.429Z,10.32
2022-08-04T20:30:16.342Z,9.68
2022-08-04T20:35:26.778Z,8.15
2022-08-04T20:40:32.040Z,6.43
2022-08-04T20:45:56.635Z,6.35
2022-08-04T20:51:04.810Z,9.25
2022-08-04T20:56:06.844Z,5.03
2022-08-04T21:01:14.475Z,7.75
2022-08-04T21:06:18.739Z,11.68
2022-08-04T21:11:32.904Z,6.22
2022-08-04T21:16:54.768Z,7.05
2022-08-04T21:21:58.233Z,4.30
2022-08-04T21:27:06.279Z,6.90
2022-08-04T21:32:11.494Z,8.68
2022-08-04T21:37:21.578Z,7.57
2022-08-04T21:42:29.256Z,7.18
2022-08-04T21:47:45.975Z,7.45
2022-08-04T21:52:53.274Z,7.38
2022-08-04T21:57:56.679Z,9.27
2022-08-04T22:03:03.361Z,9.25
2022-08-04T22:08:07.772Z,10.43
2022-08-04T22:13:22.719Z,9.18
2022-08-04T22:18:27.492Z,9.27
2022-08-04T22:23:30.850Z,10.43
2022-08-04T22:28:49.324Z,9.77
2022-08-04T22:33:55.444Z,11.55
2022-08-04T22:39:06.875Z,11.55
2022-08-04T22:44:15.499Z,10.73
2022-08-04T22:49:17.935Z,9.57
2022-08-04T22:54:25.980Z,7.38
2022-08-04T22:59:32.418Z,7.22
2022-08-04T23:04:35.313Z,12.40
2022-08-04T23:09:50.216Z,10.00
2022-08-04T23:15:04.388Z,11.50
2022-08-04T23:20:22.903Z,12.88
2022-08-04T23:25:33.269Z,12.57
2022-08-04T23:30:49.249Z,8.35
2022-08-04T23:35:58.218Z,9.90
2022-08-04T23:41:07.265Z,12.70
2022-08-04T23:46:19.861Z,18.15
2022-08-04T23:51:22.827Z,13.32
2022-08-04T23:56:24.545Z,10.45
